createdAt,value
2022-07-25T00:00:22.157Z,98332.50
2022-07-25T00:05:27.824Z,98321.78
2022-07-25T00:10:32.001Z,98308.69
2022-07-25T00:15:36.159Z,98317.78
2022-07-25T00:20:41.602Z,98304.09
2022-07-25T00:25:44.976Z,98310.94
2022-07-25T00:30:49.171Z,98304.31
2022-07-25T00:35:54.432Z,98314.69
2022-07-25T00:40:58.482Z,98303.31
2022-07-25T00:46:03.001Z,98293.22
2022-07-25T00:51:09.006Z,98300.25
2022-07-25T00:56:13.150Z,98304.16
2022-07-25T01:01:17.203Z,98285.59
2022-07-25T01:06:24.856Z,98297.63
2022-07-25T01:11:29.342Z,98304.69
2022-07-25T01:16:33.373Z,98313.47
2022-07-25T01:21:41.588Z,98321.00
2022-07-25T01:26:45.039Z,98310.94
2022-07-25T01:31:49.257Z,98306.44
2022-07-25T01:36:54.781Z,98315.25
2022-07-25T01:41:58.895Z,98311.94
2022-07-25T01:47:02.850Z,98315.34
2022-07-25T01:52:08.670Z,98313.59
2022-07-25T01:57:13.007Z,98309.72
2022-07-25T02:02:17.081Z,98310.81
2022-07-25T02:07:22.543Z,98304.88
2022-07-25T02:12:25.928Z,98303.59
2022-07-25T02:17:30.892Z,98299.25
2022-07-25T02:22:35.834Z,98305.63
2022-07-25T02:27:40.127Z,98313.25
2022-07-25T02:32:43.444Z,98311.78
2022-07-25T02:37:49.062Z,98306.00
2022-07-25T02:42:52.403Z,98300.38
2022-07-25T02:47:56.467Z,98301.13
2022-07-25T02:53:01.205Z,98292.88
2022-07-25T02:58:05.306Z,98280.34
2022-07-25T03:03:08.674Z,98288.38
2022-07-25T03:08:14.274Z,98294.31
2022-07-25T03:13:17.649Z,98291.88
2022-07-25T03:18:21.701Z,98297.88
2022-07-25T03:23:27.430Z,98305.19
2022-07-25T03:28:31.763Z,98313.69
2022-07-25T03:33:35.123Z,98303.25
2022-07-25T03:38:40.644Z,98308.16
2022-07-25T03:43:44.449Z,98304.53
2022-07-25T03:48:48.678Z,98308.53
2022-07-25T03:54:06.979Z,98303.88
2022-07-25T03:59:13.507Z,98305.16
2022-07-25T04:04:17.295Z,98306.38
2022-07-25T04:09:22.998Z,98307.28
2022-07-25T04:14:26.493Z,98303.97
2022-07-25T04:19:30.573Z,98302.25
2022-07-25T04:24:35.365Z,98296.78
2022-07-25T04:29:39.923Z,98311.06
2022-07-25T04:34:43.791Z,98309.97
2022-07-25T04:39:49.410Z,98310.38
2022-07-25T04:44:52.742Z,98314.59
2022-07-25T04:49:57.497Z,98301.00
2022-07-25T04:55:02.331Z,98312.34
2022-07-25T05:00:10.256Z,98300.84
2022-07-25T05:05:21.629Z,98305.75
2022-07-25T05:10:28.372Z,98299.66
2022-07-25T05:15:32.843Z,98294.34
2022-07-25T05:20:36.208Z,98280.13
2022-07-25T05:25:40.941Z,98287.28
2022-07-25T05:30:44.346Z,98295.66
2022-07-25T05:35:47.933Z,98303.41
2022-07-25T05:40:53.312Z,98315.72
2022-07-25T05:46:02.137Z,98308.06
2022-07-25T05:51:05.471Z,98306.97
2022-07-25T05:56:10.539Z,98287.06
2022-07-25T06:01:14.974Z,98286.59
2022-07-25T06:06:18.829Z,98295.22
2022-07-25T06:11:23.538Z,98294.03
2022-07-25T06:16:29.363Z,98296.75
2022-07-25T06:21:32.879Z,98301.94
2022-07-25T06:26:39.989Z,98296.41
2022-07-25T06:31:47.284Z,98296.16
2022-07-25T06:36:50.867Z,98285.16
2022-07-25T06:41:56.014Z,98291.94
2022-07-25T06:46:59.517Z,98283.88
2022-07-25T06:52:03.526Z,98284.94
2022-07-25T06:57:09.118Z,98284.53
2022-07-25T07:02:12.824Z,98289.44
2022-07-25T07:07:16.691Z,98287.59
2022-07-25T07:12:21.408Z,98283.66
2022-07-25T07:17:24.735Z,98290.88
2022-07-25T07:22:28.114Z,98287.84
2022-07-25T07:27:32.836Z,98292.28
2022-07-25T07:32:36.239Z,98294.13
2022-07-25T07:37:43.396Z,98304.88
2022-07-25T07:42:50.311Z,98300.94
2022-07-25T07:47:55.094Z,98298.72
2022-07-25T07:52:59.517Z,98296.81
2022-07-25T07:58:04.451Z,98287.25
2022-07-25T08:03:08.950Z,98287.78
2022-07-25T08:08:13.861Z,98287.53
2022-07-25T08:13:20.642Z,98282.94
2022-07-25T08:18:23.970Z,98289.34
2022-07-25T08:23:28.954Z,98293.84
2022-07-25T08:28:33.745Z,98272.16
2022-07-25T08:33:37.151Z,98302.19
2022-07-25T08:38:40.576Z,98299.13
2022-07-25T08:43:48.676Z,98291.69
2022-07-25T08:48:53.320Z,98305.13
2022-07-25T08:53:57.368Z,98303.44
2022-07-25T08:59:02.215Z,98305.34
2022-07-25T09:04:05.799Z,98296.78
2022-07-25T09:09:09.360Z,98294.78
2022-07-25T09:14:15.351Z,98290.94
2022-07-25T09:19:21.228Z,98300.44
2022-07-25T09:24:24.754Z,98297.22
2022-07-25T09:29:31.503Z,98288.66
2022-07-25T09:34:39.173Z,98290.31
2022-07-25T09:39:46.917Z,98300.38
2022-07-25T09:45:04.169Z,98297.91
2022-07-25T09:50:09.465Z,98295.66
2022-07-25T09:55:14.262Z,98293.66
2022-07-25T10:00:23.450Z,98298.69
2022-07-25T10:05:36.299Z,98292.84
2022-07-25T10:10:41.800Z,98292.72
2022-07-25T10:15:49.789Z,98291.78
2022-07-25T10:20:54.939Z,98286.13
2022-07-25T10:26:08.578Z,98282.84
2022-07-25T10:31:26.942Z,98274.84
2022-07-25T10:36:43.857Z,98297.47
2022-07-25T10:41:53.373Z,98281.41
2022-07-25T10:47:08.641Z,98276.34
2022-07-25T10:52:17.587Z,98268.97
2022-07-25T10:57:20.908Z,98281.56
2022-07-25T11:02:25.798Z,98281.56
2022-07-25T11:07:36.095Z,98275.84
2022-07-25T11:12:40.848Z,98275.88
2022-07-25T11:17:52.515Z,98272.84
2022-07-25T11:22:57.175Z,98264.81
2022-07-25T11:28:02.204Z,98269.31
2022-07-25T11:33:06.965Z,98274.72
2022-07-25T11:38:15.655Z,98251.53
2022-07-25T11:43:22.645Z,98261.38
2022-07-25T11:48:37.051Z,98259.22
2022-07-25T11:53:42.202Z,98256.88
2022-07-25T11:58:51.851Z,98259.94
2022-07-25T12:03:56.569Z,98255.34
2022-07-25T12:09:00.716Z,98254.84
2022-07-25T12:14:05.730Z,98253.50
2022-07-25T12:19:21.490Z,98250.19
2022-07-25T12:24:24.823Z,98240.09
2022-07-25T12:29:28.208Z,98251.00
2022-07-25T12:34:34.597Z,98240.22
2022-07-25T12:39:38.008Z,98231.47
2022-07-25T12:44:41.545Z,98226.63
2022-07-25T12:49:46.340Z,98222.25
2022-07-25T12:54:49.756Z,98208.81
2022-07-25T12:59:54.199Z,98219.09
2022-07-25T13:04:58.897Z,98225.41
2022-07-25T13:10:03.766Z,98222.53
2022-07-25T13:15:08.286Z,98224.59
2022-07-25T13:20:13.778Z,98230.13
2022-07-25T13:25:17.212Z,98229.72
2022-07-25T13:30:20.546Z,98235.94
2022-07-25T13:35:33.746Z,98230.28
2022-07-25T13:40:42.113Z,98232.19
2022-07-25T13:45:45.559Z,98229.50
2022-07-25T13:50:50.357Z,98231.69
2022-07-25T13:55:53.888Z,98225.25
2022-07-25T14:00:57.291Z,98231.50
2022-07-25T14:06:02.123Z,98226.84
2022-07-25T14:11:06.188Z,98223.88
2022-07-25T14:16:09.643Z,98225.19
2022-07-25T14:21:14.646Z,98225.94
2022-07-25T14:26:18.024Z,98232.44
2022-07-25T14:31:21.726Z,98232.75
2022-07-25T14:36:26.520Z,98237.50
2022-07-25T14:41:29.928Z,98226.03
2022-07-25T14:46:33.443Z,98242.84
2022-07-25T14:51:38.304Z,98245.50
2022-07-25T14:56:41.864Z,98245.66
2022-07-25T15:01:45.225Z,98243.22
2022-07-25T15:06:49.932Z,98232.81
2022-07-25T15:11:53.312Z,98233.31
2022-07-25T15:16:56.812Z,98249.78
2022-07-25T15:22:02.241Z,98247.31
2022-07-25T15:27:05.640Z,98264.19
2022-07-25T15:32:09.606Z,98271.63
2022-07-25T15:37:14.468Z,98265.16
2022-07-25T15:42:18.256Z,98265.06
2022-07-25T15:47:21.472Z,98264.47
2022-07-25T15:52:26.764Z,98274.47
2022-07-25T15:57:30.194Z,98293.44
2022-07-25T16:02:33.711Z,98289.63
2022-07-25T16:07:38.257Z,98298.63
2022-07-25T16:12:41.829Z,98304.53
2022-07-25T16:17:45.155Z,98319.00
2022-07-25T16:22:51.507Z,98318.03
2022-07-25T16:27:55.185Z,98330.81
2022-07-25T16:32:58.702Z,98333.22
2022-07-25T16:38:03.387Z,98333.78
2022-07-25T16:43:07.062Z,98337.72
2022-07-25T16:48:10.311Z,98339.53
2022-07-25T16:53:15.331Z,98375.22
2022-07-25T16:58:19.373Z,98355.28
2022-07-25T17:03:23.007Z,98351.03
2022-07-25T17:08:27.874Z,98354.78
2022-07-25T17:13:31.646Z,98362.47
2022-07-25T17:18:35.065Z,98360.13
2022-07-25T17:23:40.101Z,98352.94
2022-07-25T17:28:43.628Z,98363.16
2022-07-25T17:33:47.082Z,98364.03
2022-07-25T17:38:51.908Z,98356.19
2022-07-25T17:43:55.452Z,98353.19
2022-07-25T17:48:59.230Z,98358.56
2022-07-25T17:54:04.509Z,98344.31
2022-07-25T17:59:08.695Z,98357.31
2022-07-25T18:04:12.086Z,98370.84
2022-07-25T18:09:17.181Z,98363.63
2022-07-25T18:14:20.629Z,98365.28
2022-07-25T18:19:25.268Z,98361.63
2022-07-25T18:24:30.872Z,98365.84
2022-07-25T18:29:37.277Z,98366.28
2022-07-25T18:34:40.726Z,98363.69
2022-07-25T18:39:45.697Z,98360.50
2022-07-25T18:44:49.267Z,98362.28
2022-07-25T18:49:53.781Z,98360.75
2022-07-25T18:54:59.008Z,98363.50
2022-07-25T19:00:03.436Z,98362.59
2022-07-25T19:05:09.562Z,98350.31
2022-07-25T19:10:14.616Z,98350.75
2022-07-25T19:15:17.928Z,98350.75
2022-07-25T19:20:21.331Z,98360.41
2022-07-25T19:25:26.258Z,98362.94
2022-07-25T19:30:30.492Z,98375.06
2022-07-25T19:35:36.303Z,98386.84
2022-07-25T19:40:41.156Z,98384.41
2022-07-25T19:45:44.691Z,98381.44
2022-07-25T19:50:48.470Z,98385.31
2022-07-25T19:55:53.334Z,98366.84
2022-07-25T20:00:56.703Z,98387.75
2022-07-25T20:06:03.423Z,98397.06
2022-07-25T20:11:11.835Z,98397.63
2022-07-25T20:16:15.263Z,98393.16
2022-07-25T20:21:18.623Z,98396.75
2022-07-25T20:26:23.413Z,98416.06
2022-07-25T20:31:26.883Z,98408.06
2022-07-25T20:36:30.238Z,98413.78
2022-07-25T20:41:34.971Z,98409.53
2022-07-25T20:46:39.202Z,98411.06
2022-07-25T20:51:42.637Z,98420.19
2022-07-25T20:56:47.466Z,98415.63
2022-07-25T21:01:51.002Z,98420.56
2022-07-25T21:06:56.621Z,98406.78
2022-07-25T21:12:02.501Z,98410.84
2022-07-25T21:17:06.125Z,98409.34
2022-07-25T21:22:09.761Z,98405.84
2022-07-25T21:27:15.076Z,98366.78
2022-07-25T21:32:21.465Z,98400.59
2022-07-25T21:37:25.047Z,98408.31
2022-07-25T21:42:29.880Z,98386.34
2022-07-25T21:47:33.314Z,98396.69
2022-07-25T21:52:36.910Z,98392.25
2022-07-25T21:57:43.270Z,98403.09
2022-07-25T22:02:48.789Z,98406.97
2022-07-25T22:07:52.499Z,98417.81
2022-07-25T22:12:57.299Z,98428.09
2022-07-25T22:18:00.639Z,98430.66
2022-07-25T22:23:04.571Z,98431.22
2022-07-25T22:28:14.167Z,98426.78
2022-07-25T22:33:17.919Z,98426.25
2022-07-25T22:38:21.261Z,98438.13
2022-07-25T22:43:56.500Z,98441.78
2022-07-25T22:48:49.370Z,98438.59
2022-07-25T22:53:52.751Z,98440.19
2022-07-25T22:58:57.779Z,98436.69
2022-07-25T23:04:01.193Z,98431.44
2022-07-25T23:09:05.994Z,98430.91
2022-07-25T23:14:10.936Z,98399.91
2022-07-25T23:19:14.302Z,98418.44
2022-07-25T23:24:17.624Z,98423.22
2022-07-25T23:29:22.375Z,98424.34
2022-07-25T23:34:25.716Z,98421.41
2022-07-25T23:39:29.443Z,98424.13
2022-07-25T23:44:34.164Z,98433.63
2022-07-25T23:49:39.915Z,98429.09
2022-07-25T23:54:43.314Z,98426.31
2022-07-25T23:59:48.939Z,98417.72
